sensor_id;sensor_type;location;lat;lon;timestamp;temperature;humidity
46041;DHT22;31779;49.124;19.190;2022-10-16T00:00:49;11.20;99.90
46041;DHT22;31779;49.124;19.190;2022-10-16T00:03:17;11.10;99.90
46041;DHT22;31779;49.124;19.190;2022-10-16T00:05:45;11.00;99.90
46041;DHT22;31779;49.124;19.190;2022-10-16T00:08:13;11.00;99.90
46041;DHT22;31779;49.124;19.190;2022-10-16T00:10:40;11.10;99.90
46041;DHT22;31779;49.124;19.190;2022-10-16T00:13:08;11.10;99.90
46041;DHT22;31779;49.124;19.190;2022-10-16T00:15:37;11.00;99.90
46041;DHT22;31779;49.124;19.190;2022-10-16T00:18:06;11.00;99.90
46041;DHT22;31779;49.124;19.190;2022-10-16T00:20:34;11.10;99.90
46041;DHT22;31779;49.124;19.190;2022-10-16T00:23:04;11.10;99.90
46041;DHT22;31779;49.124;19.190;2022-10-16T00:25:32;11.00;99.90
46041;DHT22;31779;49.124;19.190;2022-10-16T00:28:00;11.10;99.90
46041;DHT22;31779;49.124;19.190;2022-10-16T00:30:28;11.00;99.90
46041;DHT22;31779;49.124;19.190;2022-10-16T00:32:56;11.00;99.90
46041;DHT22;31779;49.124;19.190;2022-10-16T00:35:24;11.10;99.90
46041;DHT22;31779;49.124;19.190;2022-10-16T00:37:52;11.10;99.90
46041;DHT22;31779;49.124;19.190;2022-10-16T00:40:20;11.20;99.90
46041;DHT22;31779;49.124;19.190;2022-10-16T00:42:48;11.20;99.90
46041;DHT22;31779;49.124;19.190;2022-10-16T00:45:15;11.10;99.90
46041;DHT22;31779;49.124;19.190;2022-10-16T00:47:45;11.10;99.90
46041;DHT22;31779;49.124;19.190;2022-10-16T00:50:28;11.10;99.90
46041;DHT22;31779;49.124;19.190;2022-10-16T00:52:57;11.10;99.90
46041;DHT22;31779;49.124;19.190;2022-10-16T00:55:26;11.20;99.90
46041;DHT22;31779;49.124;19.190;2022-10-16T00:57:56;11.20;99.90
46041;DHT22;31779;49.124;19.190;2022-10-16T01:00:26;11.00;99.90
46041;DHT22;31779;49.124;19.190;2022-10-16T01:02:55;11.10;99.90
46041;DHT22;31779;49.124;19.190;2022-10-16T01:05:51;11.10;99.90
46041;DHT22;31779;49.124;19.190;2022-10-16T01:08:32;11.10;99.90
46041;DHT22;31779;49.124;19.190;2022-10-16T01:14:00;11.10;99.90
46041;DHT22;31779;49.124;19.190;2022-10-16T01:16:51;11.10;99.90
46041;DHT22;31779;49.124;19.190;2022-10-16T01:22:20;11.10;99.90
46041;DHT22;31779;49.124;19.190;2022-10-16T01:24:50;11.10;99.90
46041;DHT22;31779;49.124;19.190;2022-10-16T01:27:27;11.10;99.90
46041;DHT22;31779;49.124;19.190;2022-10-16T01:36:00;11.10;99.90
46041;DHT22;31779;49.124;19.190;2022-10-16T01:41:16;11.10;99.90
46041;DHT22;31779;49.124;19.190;2022-10-16T01:44:11;11.20;99.90
46041;DHT22;31779;49.124;19.190;2022-10-16T01:46:46;11.20;99.90
46041;DHT22;31779;49.124;19.190;2022-10-16T01:49:17;11.10;99.90
46041;DHT22;31779;49.124;19.190;2022-10-16T01:51:49;11.10;99.90
46041;DHT22;31779;49.124;19.190;2022-10-16T01:54:20;11.10;99.90
46041;DHT22;31779;49.124;19.190;2022-10-16T01:56:49;11.10;99.90
46041;DHT22;31779;49.124;19.190;2022-10-16T01:59:21;11.10;99.90
46041;DHT22;31779;49.124;19.190;2022-10-16T02:01:54;11.10;99.90
46041;DHT22;31779;49.124;19.190;2022-10-16T02:04:36;11.10;99.90
46041;DHT22;31779;49.124;19.190;2022-10-16T02:07:05;11.10;99.90
46041;DHT22;31779;49.124;19.190;2022-10-16T02:09:34;11.10;99.90
46041;DHT22;31779;49.124;19.190;2022-10-16T02:12:12;11.10;99.90
46041;DHT22;31779;49.124;19.190;2022-10-16T02:14:41;11.10;99.90
46041;DHT22;31779;49.124;19.190;2022-10-16T02:17:15;11.20;99.90
46041;DHT22;31779;49.124;19.190;2022-10-16T02:19:44;11.20;99.90
46041;DHT22;31779;49.124;19.190;2022-10-16T02:22:21;11.20;99.90
46041;DHT22;31779;49.124;19.190;2022-10-16T02:24:58;11.10;99.90
46041;DHT22;31779;49.124;19.190;2022-10-16T02:27:42;11.10;99.90
46041;DHT22;31779;49.124;19.190;2022-10-16T02:30:15;11.10;99.90
46041;DHT22;31779;49.124;19.190;2022-10-16T02:32:48;11.10;99.90
46041;DHT22;31779;49.124;19.190;2022-10-16T02:35:18;11.10;99.90
46041;DHT22;31779;49.124;19.190;2022-10-16T02:37:48;11.00;99.90
46041;DHT22;31779;49.124;19.190;2022-10-16T02:40:17;11.10;99.90
46041;DHT22;31779;49.124;19.190;2022-10-16T02:42:52;11.10;99.90
46041;DHT22;31779;49.124;19.190;2022-10-16T02:45:21;11.10;99.90
46041;DHT22;31779;49.124;19.190;2022-10-16T02:47:49;11.10;99.90
46041;DHT22;31779;49.124;19.190;2022-10-16T02:50:17;11.10;99.90
46041;DHT22;31779;49.124;19.190;2022-10-16T02:52:45;11.10;99.90
46041;DHT22;31779;49.124;19.190;2022-10-16T02:55:13;11.10;99.90
46041;DHT22;31779;49.124;19.190;2022-10-16T02:57:41;11.00;99.90
46041;DHT22;31779;49.124;19.190;2022-10-16T03:00:14;11.10;99.90
46041;DHT22;31779;49.124;19.190;2022-10-16T03:02:42;11.10;99.90
46041;DHT22;31779;49.124;19.190;2022-10-16T03:05:10;11.00;99.90
46041;DHT22;31779;49.124;19.190;2022-10-16T03:07:38;11.00;99.90
46041;DHT22;31779;49.124;19.190;2022-10-16T03:10:07;11.10;99.90
46041;DHT22;31779;49.124;19.190;2022-10-16T03:12:35;11.00;99.90
46041;DHT22;31779;49.124;19.190;2022-10-16T03:15:03;11.00;99.90
46041;DHT22;31779;49.124;19.190;2022-10-16T03:17:32;11.00;99.90
46041;DHT22;31779;49.124;19.190;2022-10-16T03:19:59;11.10;99.90
46041;DHT22;31779;49.124;19.190;2022-10-16T03:22:27;11.10;99.90
46041;DHT22;31779;49.124;19.190;2022-10-16T03:24:55;11.00;99.90
46041;DHT22;31779;49.124;19.190;2022-10-16T03:27:22;11.00;99.90
46041;DHT22;31779;49.124;19.190;2022-10-16T03:29:51;11.00;99.90
46041;DHT22;31779;49.124;19.190;2022-10-16T03:32:19;11.00;99.90
46041;DHT22;31779;49.124;19.190;2022-10-16T03:34:50;11.00;99.90
46041;DHT22;31779;49.124;19.190;2022-10-16T03:37:19;11.00;99.90
46041;DHT22;31779;49.124;19.190;2022-10-16T03:39:47;11.00;99.90
46041;DHT22;31779;49.124;19.190;2022-10-16T03:42:15;11.00;99.90
46041;DHT22;31779;49.124;19.190;2022-10-16T03:44:43;11.00;99.90
46041;DHT22;31779;49.124;19.190;2022-10-16T03:47:10;10.90;99.90
46041;DHT22;31779;49.124;19.190;2022-10-16T03:49:38;10.90;99.90
46041;DHT22;31779;49.124;19.190;2022-10-16T03:52:07;11.00;99.90
46041;DHT22;31779;49.124;19.190;2022-10-16T03:54:35;11.10;99.90
46041;DHT22;31779;49.124;19.190;2022-10-16T03:57:03;11.00;99.90
46041;DHT22;31779;49.124;19.190;2022-10-16T03:59:31;11.10;99.90
46041;DHT22;31779;49.124;19.190;2022-10-16T04:01:59;11.10;99.90
46041;DHT22;31779;49.124;19.190;2022-10-16T04:04:26;11.10;99.90
46041;DHT22;31779;49.124;19.190;2022-10-16T04:06:54;11.10;99.90
46041;DHT22;31779;49.124;19.190;2022-10-16T04:09:22;10.90;99.90
46041;DHT22;31779;49.124;19.190;2022-10-16T04:11:50;10.90;99.90
46041;DHT22;31779;49.124;19.190;2022-10-16T04:14:18;10.90;99.90
46041;DHT22;31779;49.124;19.190;2022-10-16T04:16:46;11.00;99.90
46041;DHT22;31779;49.124;19.190;2022-10-16T04:19:13;11.00;99.90
46041;DHT22;31779;49.124;19.190;2022-10-16T04:21:42;11.00;99.90
46041;DHT22;31779;49.124;19.190;2022-10-16T04:24:09;11.00;99.90
46041;DHT22;31779;49.124;19.190;2022-10-16T04:26:38;11.00;99.90
46041;DHT22;31779;49.124;19.190;2022-10-16T04:29:06;10.90;99.90
46041;DHT22;31779;49.124;19.190;2022-10-16T04:31:34;10.90;99.90
46041;DHT22;31779;49.124;19.190;2022-10-16T04:34:02;11.00;99.90
46041;DHT22;31779;49.124;19.190;2022-10-16T04:36:30;10.90;99.90
46041;DHT22;31779;49.124;19.190;2022-10-16T04:38:58;11.00;99.90
46041;DHT22;31779;49.124;19.190;2022-10-16T04:41:26;10.90;99.90
46041;DHT22;31779;49.124;19.190;2022-10-16T04:43:54;11.00;99.90
46041;DHT22;31779;49.124;19.190;2022-10-16T04:46:21;11.00;99.90
46041;DHT22;31779;49.124;19.190;2022-10-16T04:48:49;10.90;99.90
46041;DHT22;31779;49.124;19.190;2022-10-16T04:51:17;10.90;99.90
46041;DHT22;31779;49.124;19.190;2022-10-16T04:53:46;10.90;99.90
46041;DHT22;31779;49.124;19.190;2022-10-16T04:56:13;10.80;99.90
46041;DHT22;31779;49.124;19.190;2022-10-16T04:58:42;10.80;99.90
46041;DHT22;31779;49.124;19.190;2022-10-16T05:01:10;10.80;99.90
46041;DHT22;31779;49.124;19.190;2022-10-16T05:03:38;10.80;99.90
46041;DHT22;31779;49.124;19.190;2022-10-16T05:06:07;10.80;99.90
46041;DHT22;31779;49.124;19.190;2022-10-16T05:08:34;10.80;99.90
46041;DHT22;31779;49.124;19.190;2022-10-16T05:11:02;10.90;99.90
46041;DHT22;31779;49.124;19.190;2022-10-16T05:13:30;10.80;99.90
46041;DHT22;31779;49.124;19.190;2022-10-16T05:15:58;10.90;99.90
46041;DHT22;31779;49.124;19.190;2022-10-16T05:18:26;10.80;99.90
46041;DHT22;31779;49.124;19.190;2022-10-16T05:20:54;10.80;99.90
46041;DHT22;31779;49.124;19.190;2022-10-16T05:23:22;10.80;99.90
46041;DHT22;31779;49.124;19.190;2022-10-16T05:25:57;10.80;99.90
46041;DHT22;31779;49.124;19.190;2022-10-16T05:28:27;10.80;99.90
46041;DHT22;31779;49.124;19.190;2022-10-16T05:30:56;10.80;99.90
46041;DHT22;31779;49.124;19.190;2022-10-16T05:33:25;10.80;99.90
46041;DHT22;31779;49.124;19.190;2022-10-16T05:35:53;10.70;99.90
46041;DHT22;31779;49.124;19.190;2022-10-16T05:38:21;10.80;99.90
46041;DHT22;31779;49.124;19.190;2022-10-16T05:40:53;10.90;99.90
46041;DHT22;31779;49.124;19.190;2022-10-16T05:43:20;10.80;99.90
46041;DHT22;31779;49.124;19.190;2022-10-16T05:45:56;10.90;99.90
46041;DHT22;31779;49.124;19.190;2022-10-16T05:48:25;10.80;99.90
46041;DHT22;31779;49.124;19.190;2022-10-16T05:51:01;10.90;99.90
46041;DHT22;31779;49.124;19.190;2022-10-16T05:53:31;10.90;99.90
46041;DHT22;31779;49.124;19.190;2022-10-16T05:56:00;10.70;99.90
46041;DHT22;31779;49.124;19.190;2022-10-16T05:58:30;10.70;99.90
46041;DHT22;31779;49.124;19.190;2022-10-16T06:01:01;10.70;99.90
46041;DHT22;31779;49.124;19.190;2022-10-16T06:03:29;10.70;99.90
46041;DHT22;31779;49.124;19.190;2022-10-16T06:05:57;10.70;99.90
46041;DHT22;31779;49.124;19.190;2022-10-16T06:08:25;10.70;99.90
46041;DHT22;31779;49.124;19.190;2022-10-16T06:11:07;10.70;99.90
46041;DHT22;31779;49.124;19.190;2022-10-16T06:13:36;10.80;99.90
46041;DHT22;31779;49.124;19.190;2022-10-16T06:16:04;13.50;99.90
46041;DHT22;31779;49.124;19.190;2022-10-16T06:18:32;15.20;99.90
46041;DHT22;31779;49.124;19.190;2022-10-16T06:21:07;15.50;99.90
46041;DHT22;31779;49.124;19.190;2022-10-16T06:23:36;15.00;99.90
46041;DHT22;31779;49.124;19.190;2022-10-16T06:26:16;17.60;99.90
46041;DHT22;31779;49.124;19.190;2022-10-16T06:28:44;16.20;99.90
46041;DHT22;31779;49.124;19.190;2022-10-16T06:31:13;15.40;99.90
46041;DHT22;31779;49.124;19.190;2022-10-16T06:33:41;14.70;99.90
46041;DHT22;31779;49.124;19.190;2022-10-16T06:36:12;14.30;99.90
46041;DHT22;31779;49.124;19.190;2022-10-16T06:38:41;13.90;99.90
46041;DHT22;31779;49.124;19.190;2022-10-16T06:41:17;13.60;99.90
46041;DHT22;31779;49.124;19.190;2022-10-16T06:43:47;13.70;99.90
46041;DHT22;31779;49.124;19.190;2022-10-16T06:46:17;13.70;99.90
46041;DHT22;31779;49.124;19.190;2022-10-16T06:48:46;13.70;99.90
46041;DHT22;31779;49.124;19.190;2022-10-16T06:51:16;13.70;99.90
46041;DHT22;31779;49.124;19.190;2022-10-16T06:53:47;13.70;99.90
46041;DHT22;31779;49.124;19.190;2022-10-16T06:56:34;13.60;99.90
46041;DHT22;31779;49.124;19.190;2022-10-16T06:59:02;13.50;99.90
46041;DHT22;31779;49.124;19.190;2022-10-16T07:01:30;13.50;99.90
46041;DHT22;31779;49.124;19.190;2022-10-16T07:04:00;13.70;99.90
46041;DHT22;31779;49.124;19.190;2022-10-16T07:06:31;13.70;99.90
46041;DHT22;31779;49.124;19.190;2022-10-16T07:09:02;13.60;99.90
46041;DHT22;31779;49.124;19.190;2022-10-16T07:11:31;13.60;99.90
46041;DHT22;31779;49.124;19.190;2022-10-16T07:13:59;13.60;99.90
46041;DHT22;31779;49.124;19.190;2022-10-16T07:16:29;13.80;99.90
46041;DHT22;31779;49.124;19.190;2022-10-16T07:19:00;13.90;99.90
46041;DHT22;31779;49.124;19.190;2022-10-16T07:21:33;14.10;99.90
46041;DHT22;31779;49.124;19.190;2022-10-16T07:24:07;14.20;99.90
46041;DHT22;31779;49.124;19.190;2022-10-16T07:26:36;14.20;99.90
46041;DHT22;31779;49.124;19.190;2022-10-16T07:29:12;14.30;99.90
46041;DHT22;31779;49.124;19.190;2022-10-16T07:31:41;14.20;99.90
46041;DHT22;31779;49.124;19.190;2022-10-16T07:34:12;14.40;99.90
46041;DHT22;31779;49.124;19.190;2022-10-16T07:36:41;14.30;99.90
46041;DHT22;31779;49.124;19.190;2022-10-16T07:39:08;14.60;99.90
46041;DHT22;31779;49.124;19.190;2022-10-16T07:41:37;14.40;99.90
46041;DHT22;31779;49.124;19.190;2022-10-16T07:44:05;14.70;99.90
46041;DHT22;31779;49.124;19.190;2022-10-16T07:46:35;15.00;99.90
46041;DHT22;31779;49.124;19.190;2022-10-16T07:49:04;15.10;99.90
46041;DHT22;31779;49.124;19.190;2022-10-16T07:51:32;15.20;99.90
46041;DHT22;31779;49.124;19.190;2022-10-16T07:54:00;15.30;99.90
46041;DHT22;31779;49.124;19.190;2022-10-16T07:56:30;15.20;99.90
46041;DHT22;31779;49.124;19.190;2022-10-16T07:58:58;15.20;99.90
46041;DHT22;31779;49.124;19.190;2022-10-16T08:01:26;15.00;99.90
46041;DHT22;31779;49.124;19.190;2022-10-16T08:03:55;15.20;99.90
46041;DHT22;31779;49.124;19.190;2022-10-16T08:06:23;15.30;99.90
46041;DHT22;31779;49.124;19.190;2022-10-16T08:08:55;15.30;99.90
46041;DHT22;31779;49.124;19.190;2022-10-16T08:11:25;15.00;99.90
46041;DHT22;31779;49.124;19.190;2022-10-16T08:13:53;14.70;99.90
46041;DHT22;31779;49.124;19.190;2022-10-16T08:16:21;15.00;99.90
46041;DHT22;31779;49.124;19.190;2022-10-16T08:18:50;15.00;99.90
46041;DHT22;31779;49.124;19.190;2022-10-16T08:21:21;15.20;99.90
46041;DHT22;31779;49.124;19.190;2022-10-16T08:23:52;15.20;99.90
46041;DHT22;31779;49.124;19.190;2022-10-16T08:26:26;15.20;99.90
46041;DHT22;31779;49.124;19.190;2022-10-16T08:28:54;15.20;99.90
46041;DHT22;31779;49.124;19.190;2022-10-16T08:31:23;15.10;99.90
46041;DHT22;31779;49.124;19.190;2022-10-16T08:33:51;14.90;99.90
46041;DHT22;31779;49.124;19.190;2022-10-16T08:36:20;15.00;99.90
46041;DHT22;31779;49.124;19.190;2022-10-16T08:38:49;15.20;99.90
46041;DHT22;31779;49.124;19.190;2022-10-16T08:49:43;15.40;99.90
46041;DHT22;31779;49.124;19.190;2022-10-16T08:52:19;15.30;99.90
46041;DHT22;31779;49.124;19.190;2022-10-16T08:54:48;15.30;99.90
46041;DHT22;31779;49.124;19.190;2022-10-16T08:57:20;15.20;99.90
46041;DHT22;31779;49.124;19.190;2022-10-16T08:59:51;15.20;99.90
46041;DHT22;31779;49.124;19.190;2022-10-16T09:02:35;15.30;99.90
46041;DHT22;31779;49.124;19.190;2022-10-16T09:19:02;18.40;99.90
46041;DHT22;31779;49.124;19.190;2022-10-16T09:21:35;18.90;99.90
46041;DHT22;31779;49.124;19.190;2022-10-16T09:24:19;19.90;99.90
46041;DHT22;31779;49.124;19.190;2022-10-16T09:26:52;21.50;92.20
46041;DHT22;31779;49.124;19.190;2022-10-16T09:29:20;22.30;89.80
46041;DHT22;31779;49.124;19.190;2022-10-16T09:31:49;21.60;92.40
46041;DHT22;31779;49.124;19.190;2022-10-16T09:34:30;23.50;91.10
46041;DHT22;31779;49.124;19.190;2022-10-16T09:36:59;24.40;89.30
46041;DHT22;31779;49.124;19.190;2022-10-16T09:39:29;24.80;74.40
46041;DHT22;31779;49.124;19.190;2022-10-16T09:41:57;25.50;67.30
46041;DHT22;31779;49.124;19.190;2022-10-16T09:44:31;24.30;74.60
46041;DHT22;31779;49.124;19.190;2022-10-16T09:47:16;24.80;78.20
46041;DHT22;31779;49.124;19.190;2022-10-16T09:52:20;24.80;73.80
46041;DHT22;31779;49.124;19.190;2022-10-16T09:54:53;25.70;65.40
46041;DHT22;31779;49.124;19.190;2022-10-16T09:57:22;26.80;64.30
46041;DHT22;31779;49.124;19.190;2022-10-16T09:59:53;27.40;60.30
46041;DHT22;31779;49.124;19.190;2022-10-16T10:04:58;29.40;57.40
46041;DHT22;31779;49.124;19.190;2022-10-16T10:07:28;28.40;55.80
46041;DHT22;31779;49.124;19.190;2022-10-16T10:10:04;26.70;58.90
46041;DHT22;31779;49.124;19.190;2022-10-16T10:12:33;26.10;59.40
46041;DHT22;31779;49.124;19.190;2022-10-16T10:15:07;25.40;59.40
46041;DHT22;31779;49.124;19.190;2022-10-16T10:17:49;25.20;59.20
46041;DHT22;31779;49.124;19.190;2022-10-16T10:20:35;24.50;63.40
46041;DHT22;31779;49.124;19.190;2022-10-16T10:23:21;23.90;61.60
46041;DHT22;31779;49.124;19.190;2022-10-16T10:31:14;21.50;71.20
46041;DHT22;31779;49.124;19.190;2022-10-16T10:36:45;19.70;77.90
46041;DHT22;31779;49.124;19.190;2022-10-16T10:39:30;19.90;78.50
46041;DHT22;31779;49.124;19.190;2022-10-16T10:47:24;19.20;83.50
46041;DHT22;31779;49.124;19.190;2022-10-16T10:55:44;18.80;82.50
46041;DHT22;31779;49.124;19.190;2022-10-16T10:58:34;18.90;79.40
46041;DHT22;31779;49.124;19.190;2022-10-16T11:01:15;18.90;79.20
46041;DHT22;31779;49.124;19.190;2022-10-16T11:06:42;19.00;80.30
46041;DHT22;31779;49.124;19.190;2022-10-16T11:12:42;19.50;84.90
46041;DHT22;31779;49.124;19.190;2022-10-16T11:17:45;19.80;78.40
46041;DHT22;31779;49.124;19.190;2022-10-16T11:20:24;19.70;81.00
46041;DHT22;31779;49.124;19.190;2022-10-16T11:22:55;19.30;79.50
46041;DHT22;31779;49.124;19.190;2022-10-16T11:25:30;19.40;80.40
46041;DHT22;31779;49.124;19.190;2022-10-16T11:28:10;19.20;79.40
46041;DHT22;31779;49.124;19.190;2022-10-16T11:31:00;19.20;79.70
46041;DHT22;31779;49.124;19.190;2022-10-16T11:47:35;19.90;80.90
46041;DHT22;31779;49.124;19.190;2022-10-16T11:55:49;18.30;86.00
46041;DHT22;31779;49.124;19.190;2022-10-16T11:58:30;18.50;86.50
46041;DHT22;31779;49.124;19.190;2022-10-16T12:03:58;18.40;85.50
46041;DHT22;31779;49.124;19.190;2022-10-16T12:06:51;18.10;85.40
46041;DHT22;31779;49.124;19.190;2022-10-16T12:09:29;18.00;89.10
46041;DHT22;31779;49.124;19.190;2022-10-16T12:11:58;17.80;91.40
46041;DHT22;31779;49.124;19.190;2022-10-16T12:17:43;18.20;91.30
46041;DHT22;31779;49.124;19.190;2022-10-16T12:22:55;19.60;84.30
46041;DHT22;31779;49.124;19.190;2022-10-16T12:28:21;19.80;82.80
46041;DHT22;31779;49.124;19.190;2022-10-16T12:31:00;19.70;83.90
46041;DHT22;31779;49.124;19.190;2022-10-16T12:33:29;20.10;81.90
46041;DHT22;31779;49.124;19.190;2022-10-16T12:36:00;20.20;80.70
46041;DHT22;31779;49.124;19.190;2022-10-16T12:38:49;19.80;80.70
46041;DHT22;31779;49.124;19.190;2022-10-16T12:43:58;22.30;74.90
46041;DHT22;31779;49.124;19.190;2022-10-16T12:49:30;23.40;73.30
46041;DHT22;31779;49.124;19.190;2022-10-16T12:51:58;24.90;73.40
46041;DHT22;31779;49.124;19.190;2022-10-16T12:54:34;26.90;64.10
46041;DHT22;31779;49.124;19.190;2022-10-16T13:00:13;29.30;59.00
46041;DHT22;31779;49.124;19.190;2022-10-16T13:13:58;26.20;54.80
46041;DHT22;31779;49.124;19.190;2022-10-16T13:27:17;21.60;72.40
46041;DHT22;31779;49.124;19.190;2022-10-16T13:30:18;22.50;66.20
46041;DHT22;31779;49.124;19.190;2022-10-16T13:32:50;23.90;63.20
46041;DHT22;31779;49.124;19.190;2022-10-16T13:35:27;24.90;64.10
46041;DHT22;31779;49.124;19.190;2022-10-16T13:40:54;25.40;59.80
46041;DHT22;31779;49.124;19.190;2022-10-16T13:43:28;24.40;63.30
46041;DHT22;31779;49.124;19.190;2022-10-16T13:46:05;23.40;67.30
46041;DHT22;31779;49.124;19.190;2022-10-16T13:48:34;22.90;64.90
46041;DHT22;31779;49.124;19.190;2022-10-16T13:51:12;22.30;67.50
46041;DHT22;31779;49.124;19.190;2022-10-16T13:53:42;21.90;66.70
46041;DHT22;31779;49.124;19.190;2022-10-16T13:56:16;21.60;72.10
46041;DHT22;31779;49.124;19.190;2022-10-16T13:58:45;21.20;71.00
46041;DHT22;31779;49.124;19.190;2022-10-16T14:01:23;20.70;70.10
46041;DHT22;31779;49.124;19.190;2022-10-16T14:04:05;19.80;71.20
46041;DHT22;31779;49.124;19.190;2022-10-16T14:06:35;18.90;76.80
46041;DHT22;31779;49.124;19.190;2022-10-16T14:12:03;17.80;89.70
46041;DHT22;31779;49.124;19.190;2022-10-16T14:14:41;17.80;84.50
46041;DHT22;31779;49.124;19.190;2022-10-16T14:19:50;16.90;93.40
46041;DHT22;31779;49.124;19.190;2022-10-16T14:22:37;16.90;92.00
46041;DHT22;31779;49.124;19.190;2022-10-16T14:28:04;17.20;93.80
46041;DHT22;31779;49.124;19.190;2022-10-16T14:30:35;17.20;88.70
46041;DHT22;31779;49.124;19.190;2022-10-16T14:33:06;16.90;92.10
46041;DHT22;31779;49.124;19.190;2022-10-16T14:35:39;16.70;96.40
46041;DHT22;31779;49.124;19.190;2022-10-16T14:38:18;16.70;99.00
46041;DHT22;31779;49.124;19.190;2022-10-16T14:40:48;16.60;99.90
46041;DHT22;31779;49.124;19.190;2022-10-16T14:43:22;16.30;99.90
46041;DHT22;31779;49.124;19.190;2022-10-16T14:45:52;16.10;99.90
46041;DHT22;31779;49.124;19.190;2022-10-16T14:48:23;16.20;99.90
46041;DHT22;31779;49.124;19.190;2022-10-16T14:50:51;16.30;97.20
46041;DHT22;31779;49.124;19.190;2022-10-16T14:53:21;15.60;99.90
46041;DHT22;31779;49.124;19.190;2022-10-16T14:55:49;15.50;99.90
46041;DHT22;31779;49.124;19.190;2022-10-16T14:58:20;15.50;99.90
46041;DHT22;31779;49.124;19.190;2022-10-16T15:00:49;15.20;99.90
46041;DHT22;31779;49.124;19.190;2022-10-16T15:03:17;15.20;99.90
46041;DHT22;31779;49.124;19.190;2022-10-16T15:05:45;15.30;99.90
46041;DHT22;31779;49.124;19.190;2022-10-16T15:08:12;15.20;99.90
46041;DHT22;31779;49.124;19.190;2022-10-16T15:10:42;14.90;99.90
46041;DHT22;31779;49.124;19.190;2022-10-16T15:13:14;14.90;99.90
46041;DHT22;31779;49.124;19.190;2022-10-16T15:15:45;14.70;99.90
46041;DHT22;31779;49.124;19.190;2022-10-16T15:18:13;14.60;99.90
46041;DHT22;31779;49.124;19.190;2022-10-16T15:20:50;14.30;99.90
46041;DHT22;31779;49.124;19.190;2022-10-16T15:23:21;14.20;99.90
46041;DHT22;31779;49.124;19.190;2022-10-16T15:25:53;14.00;99.90
46041;DHT22;31779;49.124;19.190;2022-10-16T15:28:23;14.00;99.90
46041;DHT22;31779;49.124;19.190;2022-10-16T15:30:53;14.10;99.90
46041;DHT22;31779;49.124;19.190;2022-10-16T15:33:25;13.80;99.90
46041;DHT22;31779;49.124;19.190;2022-10-16T15:35:55;13.60;99.90
46041;DHT22;31779;49.124;19.190;2022-10-16T15:38:24;13.30;99.90
46041;DHT22;31779;49.124;19.190;2022-10-16T15:40:53;13.10;99.90
46041;DHT22;31779;49.124;19.190;2022-10-16T15:43:22;13.00;99.90
46041;DHT22;31779;49.124;19.190;2022-10-16T15:46:02;12.90;99.90
46041;DHT22;31779;49.124;19.190;2022-10-16T15:48:31;12.70;99.90
46041;DHT22;31779;49.124;19.190;2022-10-16T15:51:06;12.80;99.90
46041;DHT22;31779;49.124;19.190;2022-10-16T15:53:35;12.80;99.90
46041;DHT22;31779;49.124;19.190;2022-10-16T15:56:07;12.70;99.90
46041;DHT22;31779;49.124;19.190;2022-10-16T15:58:37;12.50;99.90
46041;DHT22;31779;49.124;19.190;2022-10-16T16:01:06;12.30;99.90
46041;DHT22;31779;49.124;19.190;2022-10-16T16:03:34;12.20;99.90
46041;DHT22;31779;49.124;19.190;2022-10-16T16:06:08;12.00;99.90
46041;DHT22;31779;49.124;19.190;2022-10-16T16:08:37;11.90;99.90
46041;DHT22;31779;49.124;19.190;2022-10-16T16:11:10;11.90;99.90
46041;DHT22;31779;49.124;19.190;2022-10-16T16:13:39;11.90;99.90
46041;DHT22;31779;49.124;19.190;2022-10-16T16:16:10;11.90;99.90
46041;DHT22;31779;49.124;19.190;2022-10-16T16:18:39;11.80;99.90
46041;DHT22;31779;49.124;19.190;2022-10-16T16:21:10;11.70;99.90
46041;DHT22;31779;49.124;19.190;2022-10-16T16:23:38;11.70;99.90
46041;DHT22;31779;49.124;19.190;2022-10-16T16:28:35;11.60;99.90
46041;DHT22;31779;49.124;19.190;2022-10-16T16:31:04;11.70;99.90
46041;DHT22;31779;49.124;19.190;2022-10-16T16:33:32;11.60;99.90
46041;DHT22;31779;49.124;19.190;2022-10-16T16:36:03;11.50;99.90
46041;DHT22;31779;49.124;19.190;2022-10-16T16:38:32;11.40;99.90
46041;DHT22;31779;49.124;19.190;2022-10-16T16:41:19;11.30;99.90
46041;DHT22;31779;49.124;19.190;2022-10-16T16:43:48;11.20;99.90
46041;DHT22;31779;49.124;19.190;2022-10-16T16:46:16;11.20;99.90
46041;DHT22;31779;49.124;19.190;2022-10-16T16:48:44;11.20;99.90
46041;DHT22;31779;49.124;19.190;2022-10-16T16:51:15;11.10;99.90
46041;DHT22;31779;49.124;19.190;2022-10-16T16:53:48;11.00;99.90
46041;DHT22;31779;49.124;19.190;2022-10-16T16:56:18;11.00;99.90
46041;DHT22;31779;49.124;19.190;2022-10-16T16:58:48;10.90;99.90
46041;DHT22;31779;49.124;19.190;2022-10-16T17:01:17;10.90;99.90
46041;DHT22;31779;49.124;19.190;2022-10-16T17:03:53;10.80;99.90
46041;DHT22;31779;49.124;19.190;2022-10-16T17:06:27;10.80;99.90
46041;DHT22;31779;49.124;19.190;2022-10-16T17:08:58;10.80;99.90
46041;DHT22;31779;49.124;19.190;2022-10-16T17:11:26;10.60;99.90
46041;DHT22;31779;49.124;19.190;2022-10-16T17:13:57;10.60;99.90
46041;DHT22;31779;49.124;19.190;2022-10-16T17:16:30;10.60;99.90
46041;DHT22;31779;49.124;19.190;2022-10-16T17:19:04;10.50;99.90
46041;DHT22;31779;49.124;19.190;2022-10-16T17:21:34;10.40;99.90
46041;DHT22;31779;49.124;19.190;2022-10-16T17:24:03;10.40;99.90
46041;DHT22;31779;49.124;19.190;2022-10-16T17:26:32;10.30;99.90
46041;DHT22;31779;49.124;19.190;2022-10-16T17:29:06;10.30;99.90
46041;DHT22;31779;49.124;19.190;2022-10-16T17:31:36;10.40;99.90
46041;DHT22;31779;49.124;19.190;2022-10-16T17:34:07;10.40;99.90
46041;DHT22;31779;49.124;19.190;2022-10-16T17:36:37;10.30;99.90
46041;DHT22;31779;49.124;19.190;2022-10-16T17:39:09;10.20;99.90
46041;DHT22;31779;49.124;19.190;2022-10-16T17:41:38;10.20;99.90
46041;DHT22;31779;49.124;19.190;2022-10-16T17:44:07;10.10;99.90
46041;DHT22;31779;49.124;19.190;2022-10-16T17:46:36;10.10;99.90
46041;DHT22;31779;49.124;19.190;2022-10-16T17:49:09;10.10;99.90
46041;DHT22;31779;49.124;19.190;2022-10-16T17:51:40;10.00;99.90
46041;DHT22;31779;49.124;19.190;2022-10-16T17:54:11;10.00;99.90
46041;DHT22;31779;49.124;19.190;2022-10-16T17:56:41;10.00;99.90
46041;DHT22;31779;49.124;19.190;2022-10-16T17:59:10;9.90;99.90
46041;DHT22;31779;49.124;19.190;2022-10-16T18:01:40;9.90;99.90
46041;DHT22;31779;49.124;19.190;2022-10-16T18:04:11;9.90;99.90
46041;DHT22;31779;49.124;19.190;2022-10-16T18:06:42;9.80;99.90